Time;durP1;ratioP1;P1;durP2;ratioP2;P2;SDS_P1;SDS_P2;PMS_P1;PMS_P2;Temp;Humidity;BMP_temperature;BMP_pressure;BME280_temperature;BME280_humidity;BME280_pressure;Samples;Min_cycle;Max_cycle;Signal;HPM_P1;HPM_P2
2022/09/17 00:01:01;;;;;;;0.75;0.70;;;;;;;11.77;70.83;100710.34;5151940;28;20036;-81
2022/09/17 00:03:39;;;;;;;0.30;0.30;;;;;;;11.81;70.61;100714.56;5138425;28;20511;-81
2022/09/17 00:06:11;;;;;;;1.08;0.93;;;;;;;11.56;72.47;100717.13;5144049;28;20042;-81
2022/09/17 00:08:42;;;;;;;0.50;0.50;;;;;;;11.46;73.36;100713.91;5153298;28;20173;-81
2022/09/17 00:11:27;;;;;;;0.30;0.30;;;;;;;11.68;71.72;100718.50;5161529;28;20019;-80
2022/09/17 00:14:01;;;;;;;0.60;0.60;;;;;;;11.61;72.88;100707.31;5147765;28;20030;-82
2022/09/17 00:16:36;;;;;;;0.40;0.40;;;;;;;11.56;72.99;100714.50;5128187;28;20037;-81
2022/09/17 00:19:13;;;;;;;0.50;0.50;;;;;;;11.58;72.65;100718.81;5120868;28;20045;-82
2022/09/17 00:21:46;;;;;;;0.20;0.20;;;;;;;11.81;70.89;100714.56;5144884;28;20486;-82
2022/09/17 00:24:18;;;;;;;2.45;0.52;;;;;;;11.77;71.20;100713.81;5147222;28;20073;-82
2022/09/17 00:26:49;;;;;;;0.73;0.73;;;;;;;11.76;71.70;100717.34;5117217;28;20506;-82
2022/09/17 00:29:23;;;;;;;0.50;0.50;;;;;;;11.62;72.46;100714.31;5162914;28;20097;-80
2022/09/17 00:31:53;;;;;;;0.68;0.68;;;;;;;11.69;71.51;100714.97;5138174;28;20091;-81
2022/09/17 00:34:26;;;;;;;1.27;0.75;;;;;;;11.50;73.67;100721.66;5162347;28;20134;-82
2022/09/17 00:36:57;;;;;;;0.30;0.30;;;;;;;11.57;72.90;100714.44;5174305;28;20045;-81
2022/09/17 00:39:28;;;;;;;1.85;1.55;;;;;;;11.42;74.05;100721.03;5119245;28;20039;-81
2022/09/17 00:41:58;;;;;;;0.20;0.20;;;;;;;11.57;72.50;100716.22;5127683;28;20041;-81
2022/09/17 00:44:47;;;;;;;0.20;0.20;;;;;;;11.65;72.28;100708.97;5144335;28;20304;-80
2022/09/17 00:47:32;;;;;;;0.35;0.35;;;;;;;11.76;71.62;100717.34;5150661;28;20034;-81
2022/09/17 00:50:08;;;;;;;0.90;0.90;;;;;;;11.64;72.37;100712.50;5174249;28;20034;-80
2022/09/17 00:52:43;;;;;;;0.80;0.63;;;;;;;11.64;72.33;100708.09;5164430;28;20039;-81
2022/09/17 00:55:22;;;;;;;0.20;0.20;;;;;;;11.73;71.82;100716.59;5131494;28;20213;-81
2022/09/17 00:57:57;;;;;;;0.45;0.45;;;;;;;11.82;71.37;100716.28;5169383;28;20046;-81
2022/09/17 01:00:29;;;;;;;1.23;0.57;;;;;;;11.61;72.40;100718.69;5139037;28;20030;-81
2022/09/17 01:03:06;;;;;;;0.65;0.65;;;;;;;11.65;72.19;100720.31;5135378;28;20619;-81
2022/09/17 01:05:48;;;;;;;0.30;0.30;;;;;;;11.74;71.24;100727.03;5146520;28;20042;-81
2022/09/17 01:08:28;;;;;;;0.43;0.43;;;;;;;11.69;71.08;100726.34;5125528;28;20042;-81
2022/09/17 01:11:04;;;;;;;0.70;0.70;;;;;;;11.68;71.86;100729.88;5148569;28;20034;-81
2022/09/17 01:14:25;;;;;;;0.28;0.28;;;;;;;11.36;73.95;100730.88;5157935;28;20038;-81
2022/09/17 01:17:09;;;;;;;1.58;1.48;;;;;;;11.42;72.76;100735.94;5110842;29;20055;-81
2022/09/17 01:19:58;;;;;;;;;;;;;;;11.43;73.05;100735.88;5120807;28;20041;-81
2022/09/17 01:22:52;;;;;;;0.25;0.25;;;;;;;11.53;72.54;100739.09;5106490;28;19918;-81
2022/09/17 01:25:36;;;;;;;0.70;0.70;;;;;;;11.44;73.00;100744.66;5148262;28;20041;-81
2022/09/17 01:28:32;;;;;;;0.30;0.30;;;;;;;11.42;74.08;100746.47;5145990;28;20045;-81
2022/09/17 01:31:34;;;;;;;0.47;0.47;;;;;;;11.49;73.13;100751.47;5126952;28;20088;-80
2022/09/17 01:34:27;;;;;;;0.40;0.40;;;;;;;11.52;72.62;100750.53;5158397;28;20041;-81
2022/09/17 01:37:09;;;;;;;0.40;0.40;;;;;;;11.39;73.47;100744.78;5141661;28;20052;-81
2022/09/17 01:39:48;;;;;;;1.00;1.00;;;;;;;11.23;74.46;100751.41;5154792;28;20031;-81
2022/09/17 01:42:26;;;;;;;1.65;1.10;;;;;;;11.38;73.07;100752.69;5125726;28;20046;-81
2022/09/17 01:45:13;;;;;;;1.30;0.65;;;;;;;11.57;72.84;100753.03;5139507;28;20689;-81
2022/09/17 01:47:59;;;;;;;0.85;0.85;;;;;;;11.41;72.62;100752.63;5145571;28;20084;-81
2022/09/17 01:50:44;;;;;;;1.08;0.55;;;;;;;11.30;73.36;100756.41;5128664;28;20030;-81
2022/09/17 01:53:19;;;;;;;0.50;0.50;;;;;;;11.50;72.13;100760.22;5145235;28;20101;-81
2022/09/17 01:55:53;;;;;;;0.82;0.82;;;;;;;11.54;72.23;100764.47;5136542;28;20431;-81
2022/09/17 01:58:41;;;;;;;0.57;0.57;;;;;;;11.56;71.63;100759.19;5145816;28;20062;-79
2022/09/17 02:01:16;;;;;;;0.73;0.73;;;;;;;11.40;72.77;100753.50;5131279;28;20029;-79
2022/09/17 02:03:59;;;;;;;0.32;0.32;;;;;;;11.55;72.01;100755.66;5129193;28;20039;-80
2022/09/17 02:06:35;;;;;;;0.50;0.50;;;;;;;11.32;74.27;100751.97;5141753;28;20094;-79
2022/09/17 02:09:17;;;;;;;1.83;0.93;;;;;;;11.51;72.87;100761.94;5146510;28;20042;-79
2022/09/17 02:11:57;;;;;;;0.40;0.40;;;;;;;11.37;73.61;100767.59;5157535;28;20026;-80
2022/09/17 02:14:41;;;;;;;1.02;0.55;;;;;;;11.41;72.45;100765.75;5146070;28;20105;-79
2022/09/17 02:17:15;;;;;;;;;;;;;;;11.51;72.79;100767.19;5173343;28;20054;-80
2022/09/17 02:19:46;;;;;;;0.20;0.20;;;;;;;11.44;73.33;100758.63;5157050;28;19926;-78
2022/09/17 02:22:26;;;;;;;0.30;0.30;;;;;;;11.28;73.59;100758.22;5156855;28;20042;-80
2022/09/17 02:25:07;;;;;;;0.47;0.47;;;;;;;11.47;73.03;100773.44;5140659;28;20139;-79
2022/09/17 02:27:54;;;;;;;0.43;0.43;;;;;;;11.44;73.29;100774.41;5114440;28;20152;-79
2022/09/17 02:30:24;;;;;;;0.90;0.43;;;;;;;11.32;73.21;100765.13;5134726;28;20113;-80
2022/09/17 02:32:55;;;;;;;0.57;0.57;;;;;;;11.29;74.21;100765.19;5140596;28;20664;-80
2022/09/17 02:35:26;;;;;;;0.30;0.30;;;;;;;11.23;74.35;100767.16;5127920;28;20545;-79
2022/09/17 02:37:56;;;;;;;0.65;0.60;;;;;;;11.40;73.72;100764.03;5160355;28;20045;-80
2022/09/17 02:40:33;;;;;;;0.65;0.65;;;;;;;11.42;73.16;100768.31;5133537;28;20034;-79
2022/09/17 02:43:33;;;;;;;3.50;2.25;;;;;;;11.20;75.10;100760.19;5140010;28;20038;-79
2022/09/17 02:46:25;;;;;;;0.30;0.30;;;;;;;11.39;73.25;100764.94;5136987;28;20070;-79
2022/09/17 02:49:04;;;;;;;0.50;0.50;;;;;;;11.22;74.53;100778.56;5151349;28;20026;-80
2022/09/17 02:51:58;;;;;;;0.50;0.50;;;;;;;11.39;73.28;100772.81;5129076;28;20427;-79
2022/09/17 02:54:59;;;;;;;0.47;0.47;;;;;;;11.36;73.60;100776.38;5158229;28;20072;-80
2022/09/17 02:57:39;;;;;;;1.02;0.52;;;;;;;11.37;73.21;100778.13;5150287;28;20095;-80
2022/09/17 03:00:48;;;;;;;0.25;0.25;;;;;;;11.37;74.10;100772.88;5159769;28;20022;-79
2022/09/17 03:03:44;;;;;;;1.45;0.73;;;;;;;11.34;74.13;100776.44;5030033;28;20046;-80
2022/09/17 03:06:29;;;;;;;0.30;0.30;;;;;;;11.39;74.01;100778.06;5151621;28;20033;-80
2022/09/17 03:09:02;;;;;;;0.68;0.50;;;;;;;11.27;73.88;100774.03;5131286;28;20038;-80
2022/09/17 03:11:38;;;;;;;2.55;1.42;;;;;;;11.38;73.38;100784.22;5132985;28;20042;-81
2022/09/17 03:14:09;;;;;;;0.45;0.45;;;;;;;11.50;73.24;100773.34;5114020;28;20034;-79
2022/09/17 03:16:40;;;;;;;0.20;0.20;;;;;;;11.43;74.07;100785.81;5153570;28;20165;-80
2022/09/17 03:19:10;;;;;;;3.92;1.20;;;;;;;11.44;73.20;100782.28;5156470;28;20023;-80
2022/09/17 03:21:41;;;;;;;1.55;0.95;;;;;;;11.15;75.56;100780.50;5114812;28;20096;-80
2022/09/17 03:24:11;;;;;;;0.60;0.60;;;;;;;10.98;76.43;100779.22;5145734;28;20030;-79
2022/09/17 03:26:42;;;;;;;0.25;0.25;;;;;;;11.09;75.72;100778.06;5125240;28;20083;-79
2022/09/17 03:29:13;;;;;;;1.98;1.05;;;;;;;11.17;75.04;100776.06;5117255;28;20058;-80
2022/09/17 03:31:44;;;;;;;0.40;0.40;;;;;;;11.08;75.23;100771.91;5133482;28;20042;-80
2022/09/17 03:34:14;;;;;;;0.57;0.57;;;;;;;10.91;76.75;100772.41;5137093;28;20026;-79
2022/09/17 03:36:45;;;;;;;1.70;1.48;;;;;;;11.05;75.35;100771.16;5140366;28;20656;-80
2022/09/17 03:39:15;;;;;;;0.20;0.20;;;;;;;11.05;75.75;100776.41;5131621;28;20026;-80
2022/09/17 03:41:46;;;;;;;0.93;0.85;;;;;;;11.15;74.64;100786.63;5121439;28;20026;-79
2022/09/17 03:44:21;;;;;;;0.60;0.60;;;;;;;11.05;75.32;100785.16;5148177;28;20029;-79
2022/09/17 03:46:52;;;;;;;0.30;0.30;;;;;;;11.17;74.38;100783.94;5124554;28;20041;-79
2022/09/17 03:49:23;;;;;;;0.25;0.25;;;;;;;11.22;73.69;100794.31;5130946;28;20030;-80
2022/09/17 03:51:53;;;;;;;0.20;0.20;;;;;;;11.24;73.88;100789.91;5131886;28;20064;-80
2022/09/17 03:54:24;;;;;;;0.75;0.75;;;;;;;11.10;74.59;100785.88;5133167;28;20026;-80
2022/09/17 03:56:55;;;;;;;0.38;0.38;;;;;;;11.22;74.17;100791.69;5121334;28;20508;-80
2022/09/17 03:59:26;;;;;;;0.63;0.63;;;;;;;11.18;73.92;100788.28;5131989;28;20079;-80
2022/09/17 04:01:56;;;;;;;0.30;0.30;;;;;;;11.21;73.75;100784.72;5148402;28;20046;-80
2022/09/17 04:04:28;;;;;;;0.40;0.40;;;;;;;11.24;73.31;100782.88;5117585;28;20100;-80
2022/09/17 04:06:59;;;;;;;0.20;0.20;;;;;;;11.16;73.67;100790.09;5137901;28;20050;-80
2022/09/17 04:09:30;;;;;;;1.05;0.95;;;;;;;11.15;73.93;100789.25;5148474;28;20145;-80
2022/09/17 04:12:02;;;;;;;2.53;2.05;;;;;;;11.17;73.67;100786.56;5136611;28;20112;-80
2022/09/17 04:14:33;;;;;;;0.40;0.40;;;;;;;11.20;73.89;100796.97;5124185;28;20089;-80
2022/09/17 04:17:06;;;;;;;1.13;1.10;;;;;;;11.11;74.11;100802.50;5131736;28;20042;-80
2022/09/17 04:19:38;;;;;;;0.75;0.75;;;;;;;11.17;73.54;100791.81;5120288;28;20064;-80
2022/09/17 04:22:09;;;;;;;0.30;0.30;;;;;;;11.04;74.30;100791.31;5120741;28;20047;-80
2022/09/17 04:25:10;;;;;;;0.40;0.40;;;;;;;11.11;73.89;100795.47;5138101;28;20106;-80
2022/09/17 04:27:40;;;;;;;0.20;0.20;;;;;;;11.05;74.50;100798.28;5121457;28;20042;-80
2022/09/17 04:30:11;;;;;;;0.40;0.40;;;;;;;11.14;73.73;100791.91;5120306;28;20026;-80
2022/09/17 04:32:43;;;;;;;0.30;0.30;;;;;;;10.95;74.99;100807.31;5136907;28;20067;-80
2022/09/17 04:35:14;;;;;;;0.55;0.22;;;;;;;11.14;73.75;100798.03;5135962;28;20414;-80
2022/09/17 04:37:55;;;;;;;0.40;0.40;;;;;;;11.06;73.80;100809.63;5122396;28;20052;-80
2022/09/17 04:40:26;;;;;;;0.20;0.20;;;;;;;11.07;74.59;100803.47;5112615;28;20141;-80
2022/09/17 04:43:01;;;;;;;0.70;0.70;;;;;;;10.78;75.98;100800.75;5135537;28;20104;-80
2022/09/17 04:45:32;;;;;;;0.20;0.20;;;;;;;10.95;74.91;100802.06;5121221;28;20161;-79
2022/09/17 04:48:03;;;;;;;3.92;1.48;;;;;;;11.10;73.76;100803.41;5144717;28;20138;-79
2022/09/17 04:50:33;;;;;;;1.75;0.77;;;;;;;11.09;73.96;100809.56;5154866;28;20085;-79
2022/09/17 04:53:04;;;;;;;0.50;0.47;;;;;;;10.92;75.02;100803.00;5147575;28;20073;-80
2022/09/17 04:55:37;;;;;;;0.30;0.30;;;;;;;11.05;74.36;100802.66;5127943;28;20022;-79
2022/09/17 04:58:09;;;;;;;0.30;0.30;;;;;;;10.94;75.05;100811.72;5131197;28;20112;-79
2022/09/17 05:00:41;;;;;;;0.35;0.35;;;;;;;11.16;74.06;100805.84;5137361;28;20117;-80
2022/09/17 05:03:11;;;;;;;0.30;0.30;;;;;;;11.17;73.55;100810.22;5140437;28;20043;-80
2022/09/17 05:05:42;;;;;;;0.20;0.20;;;;;;;11.17;73.60;100810.22;5145736;28;20045;-78
2022/09/17 05:08:12;;;;;;;0.63;0.63;;;;;;;10.96;74.39;100809.88;5163936;28;20043;-79
2022/09/17 05:10:43;;;;;;;0.50;0.50;;;;;;;11.11;73.64;100813.00;5139158;28;20037;-79
2022/09/17 05:13:14;;;;;;;0.57;0.57;;;;;;;11.13;73.25;100814.69;5134107;28;20073;-79
2022/09/17 05:15:45;;;;;;;0.50;0.50;;;;;;;11.11;73.92;100815.63;5138014;28;20026;-79
2022/09/17 05:18:15;;;;;;;0.82;0.55;;;;;;;11.12;74.27;100820.84;5136514;28;20058;-79
2022/09/17 05:20:46;;;;;;;0.50;0.50;;;;;;;11.20;73.14;100823.22;5146162;28;20033;-80
2022/09/17 05:23:17;;;;;;;0.30;0.30;;;;;;;11.15;74.01;100814.63;5163694;28;20650;-80
2022/09/17 05:25:47;;;;;;;0.20;0.20;;;;;;;11.00;74.96;100822.03;5150180;28;20026;-80
2022/09/17 05:28:18;;;;;;;1.10;1.10;;;;;;;11.12;73.95;100819.97;5120177;28;20045;-80
2022/09/17 05:30:48;;;;;;;0.30;0.30;;;;;;;11.20;73.64;100825.84;5147776;28;20121;-80
2022/09/17 05:33:19;;;;;;;0.30;0.30;;;;;;;11.09;74.46;100822.69;5153230;28;20085;-80
2022/09/17 05:35:49;;;;;;;0.70;0.70;;;;;;;11.15;74.89;100825.13;5140535;28;20029;-80
2022/09/17 05:38:20;;;;;;;0.45;0.45;;;;;;;11.07;75.58;100832.38;5143885;28;20042;-80
2022/09/17 05:40:51;;;;;;;0.20;0.20;;;;;;;11.09;75.64;100835.81;5145586;28;20062;-80
2022/09/17 05:43:22;;;;;;;1.85;0.75;;;;;;;11.03;75.34;100832.44;5147592;28;20045;-80
2022/09/17 05:45:53;;;;;;;1.33;1.23;;;;;;;10.98;76.59;100834.34;5123888;28;20109;-80
2022/09/17 05:48:24;;;;;;;0.40;0.40;;;;;;;11.05;75.85;100839.41;5157214;28;20118;-80
2022/09/17 05:50:55;;;;;;;0.25;0.25;;;;;;;11.12;76.62;100838.34;5130671;28;20062;-80
2022/09/17 05:53:25;;;;;;;0.50;0.50;;;;;;;11.15;76.05;100840.91;5131006;28;20075;-79
2022/09/17 05:55:57;;;;;;;0.30;0.30;;;;;;;11.07;76.85;100842.88;5147485;28;20045;-80
2022/09/17 05:58:28;;;;;;;0.43;0.43;;;;;;;11.13;76.07;100847.94;5144117;28;20118;-80
2022/09/17 06:01:03;;;;;;;0.30;0.30;;;;;;;11.20;75.58;100843.41;5141257;28;20130;-80
2022/09/17 06:03:33;;;;;;;0.40;0.40;;;;;;;11.14;75.96;100849.69;5129752;28;20038;-80
2022/09/17 06:06:07;;;;;;;1.10;0.88;;;;;;;11.26;75.09;100853.72;5145491;28;20037;-81
2022/09/17 06:08:37;;;;;;;0.30;0.30;;;;;;;11.28;74.21;100852.78;5147377;28;20410;-81
2022/09/17 06:11:08;;;;;;;0.45;0.45;;;;;;;11.19;75.26;100853.06;5142771;28;20042;-79
2022/09/17 06:13:38;;;;;;;17.45;0.65;;;;;;;11.32;74.68;100857.06;5132900;28;20049;-79
2022/09/17 06:16:09;;;;;;;1.33;1.23;;;;;;;11.26;74.45;100866.84;5126337;28;20457;-79
2022/09/17 06:18:40;;;;;;;0.30;0.30;;;;;;;11.27;74.92;100860.69;5140092;28;20045;-80
2022/09/17 06:21:12;;;;;;;0.60;0.60;;;;;;;11.38;74.52;100868.28;5125386;28;20034;-80
2022/09/17 06:23:43;;;;;;;0.40;0.40;;;;;;;11.17;74.94;100862.72;5165744;28;20045;-80
2022/09/17 06:26:14;;;;;;;0.75;0.75;;;;;;;11.17;74.76;100871.47;5139141;28;20657;-80
2022/09/17 06:28:44;;;;;;;0.30;0.30;;;;;;;11.23;74.74;100869.59;5158270;28;20200;-80
2022/09/17 06:31:15;;;;;;;0.20;0.20;;;;;;;11.24;74.18;100876.56;5145843;28;20089;-80
2022/09/17 06:33:47;;;;;;;4.90;2.00;;;;;;;11.11;74.99;100876.88;5177454;28;20042;-79
2022/09/17 06:36:17;;;;;;;0.30;0.30;;;;;;;11.21;74.15;100880.13;5162778;28;20034;-80
2022/09/17 06:38:48;;;;;;;0.20;0.20;;;;;;;11.33;74.49;100877.16;5144915;28;20401;-80
2022/09/17 06:41:18;;;;;;;0.20;0.20;;;;;;;11.30;74.12;100879.03;5134841;28;20066;-80
2022/09/17 06:43:53;;;;;;;1.13;1.10;;;;;;;11.52;73.52;100881.91;5136055;28;20140;-80
2022/09/17 06:46:24;;;;;;;0.20;0.20;;;;;;;11.34;74.25;100873.63;5153167;28;20061;-80
2022/09/17 06:48:55;;;;;;;0.30;0.30;;;;;;;11.52;73.56;100883.66;5142278;28;20049;-80
2022/09/17 06:51:25;;;;;;;0.30;0.30;;;;;;;11.42;75.01;100878.66;5144074;28;20031;-80
2022/09/17 06:53:56;;;;;;;0.25;0.25;;;;;;;11.40;73.99;100884.88;5124433;28;20050;-81
2022/09/17 06:56:26;;;;;;;0.20;0.20;;;;;;;11.29;75.36;100893.91;5154302;28;20026;-81
2022/09/17 06:58:57;;;;;;;0.22;0.22;;;;;;;11.27;76.02;100886.97;5154070;28;20042;-80
2022/09/17 07:01:27;;;;;;;0.20;0.20;;;;;;;11.44;74.81;100892.63;5141459;28;20030;-80
2022/09/17 07:03:58;;;;;;;0.55;0.55;;;;;;;11.41;75.86;100899.72;5129431;28;20041;-80
2022/09/17 07:06:29;;;;;;;0.30;0.30;;;;;;;11.35;75.53;100900.75;5172958;28;20045;-80
2022/09/17 07:09:00;;;;;;;0.50;0.50;;;;;;;11.59;74.90;100893.97;5121603;28;20575;-80
2022/09/17 07:11:43;;;;;;;0.28;0.28;;;;;;;11.55;74.59;100894.94;5143227;28;20513;-80
2022/09/17 07:14:14;;;;;;;0.88;0.47;;;;;;;11.58;74.32;100894.00;5127327;28;20041;-81
2022/09/17 07:16:44;;;;;;;2.35;0.75;;;;;;;11.53;74.28;100904.63;5114043;28;20390;-80
2022/09/17 07:19:15;;;;;;;0.40;0.40;;;;;;;11.50;74.68;100891.59;5130343;28;20034;-80
2022/09/17 07:21:47;;;;;;;0.22;0.22;;;;;;;11.50;74.64;100888.97;5180291;28;20030;-80
2022/09/17 07:24:18;;;;;;;1.15;1.05;;;;;;;11.53;74.31;100894.13;5146721;28;20026;-80
2022/09/17 07:26:49;;;;;;;0.30;0.30;;;;;;;11.63;74.59;100892.09;5140257;28;20037;-80
2022/09/17 07:29:22;;;;;;;0.60;0.60;;;;;;;11.64;74.18;100889.44;5125981;28;20785;-80
2022/09/17 07:31:53;;;;;;;0.30;0.30;;;;;;;11.60;74.05;100890.44;5125384;28;20041;-80
2022/09/17 07:34:25;;;;;;;7.47;1.38;;;;;;;11.78;73.19;100886.41;5143429;28;20049;-80
2022/09/17 07:36:56;;;;;;;0.40;0.40;;;;;;;11.85;72.42;100889.72;5130310;28;20133;-80
2022/09/17 07:39:26;;;;;;;0.30;0.30;;;;;;;11.79;73.09;100887.25;5134399;28;20117;-80
2022/09/17 07:41:56;;;;;;;0.30;0.30;;;;;;;11.78;72.28;100885.53;5160205;28;20127;-80
2022/09/17 07:44:27;;;;;;;0.30;0.30;;;;;;;11.86;72.33;100886.16;5132842;28;20023;-80
2022/09/17 07:46:57;;;;;;;0.38;0.38;;;;;;;11.89;72.02;100887.84;5119194;28;20093;-80
2022/09/17 07:49:28;;;;;;;0.40;0.40;;;;;;;12.02;71.65;100904.16;5141470;28;20033;-80
2022/09/17 07:52:05;;;;;;;1.05;0.60;;;;;;;11.94;71.05;100899.94;5159469;28;20054;-80
2022/09/17 07:54:38;;;;;;;1.20;0.90;;;;;;;11.91;71.20;100897.41;5138484;28;20493;-80
2022/09/17 07:57:11;;;;;;;0.20;0.20;;;;;;;12.05;70.91;100893.53;5141228;28;20046;-80
2022/09/17 07:59:42;;;;;;;;;;;;;;;12.10;71.38;100894.28;5169599;28;20045;-80
2022/09/17 08:02:13;;;;;;;0.20;0.20;;;;;;;12.08;70.67;100896.94;5150867;28;19917;-80
2022/09/17 08:04:43;;;;;;;0.32;0.32;;;;;;;12.08;70.84;100903.97;5118692;28;20473;-80
2022/09/17 08:07:14;;;;;;;0.70;0.70;;;;;;;12.07;70.55;100892.56;5132682;28;20042;-80
2022/09/17 08:09:44;;;;;;;0.63;0.55;;;;;;;12.17;70.21;100895.81;5158234;28;20113;-80
2022/09/17 08:12:17;;;;;;;0.40;0.40;;;;;;;12.19;70.36;100896.59;5142751;28;20045;-80
2022/09/17 08:14:47;;;;;;;0.30;0.30;;;;;;;12.29;70.63;100894.56;5151894;28;20030;-80
2022/09/17 08:17:18;;;;;;;0.28;0.28;;;;;;;12.22;69.91;100898.28;5132344;28;20046;-80
2022/09/17 08:19:48;;;;;;;0.40;0.40;;;;;;;12.39;70.64;100900.38;5140898;28;20038;-80
2022/09/17 08:22:19;;;;;;;0.40;0.38;;;;;;;12.34;70.34;100895.25;5122521;28;20049;-80
2022/09/17 08:24:52;;;;;;;0.20;0.20;;;;;;;12.41;70.47;100898.56;5160309;28;20470;-80
2022/09/17 08:27:23;;;;;;;;;;;;;;;12.43;70.27;100897.59;5128281;28;20043;-80
2022/09/17 08:29:53;;;;;;;0.68;0.65;;;;;;;12.44;71.15;100901.09;5132050;28;19914;-80
2022/09/17 08:32:24;;;;;;;0.73;0.73;;;;;;;12.55;69.78;100906.88;5128424;28;20511;-80
2022/09/17 08:34:55;;;;;;;5.68;1.38;;;;;;;12.55;69.08;100904.25;5125096;28;20035;-80
2022/09/17 08:37:29;;;;;;;0.95;0.95;;;;;;;12.67;67.63;100904.75;5147204;28;20053;-80
2022/09/17 08:40:09;;;;;;;0.88;0.35;;;;;;;12.83;68.44;100905.97;5145154;28;20499;-80
2022/09/17 08:42:59;;;;;;;0.70;0.60;;;;;;;12.81;67.74;100913.06;5150702;28;20046;-80
2022/09/17 08:45:29;;;;;;;0.68;0.60;;;;;;;12.84;67.95;100906.81;5132482;28;20041;-80
2022/09/17 08:48:13;;;;;;;0.50;0.50;;;;;;;12.85;67.09;100909.41;5146973;28;20077;-80
2022/09/17 08:50:44;;;;;;;0.68;0.52;;;;;;;12.79;66.44;100914.03;5123160;28;20040;-81
2022/09/17 08:53:42;;;;;;;0.20;0.20;;;;;;;12.74;65.21;100907.13;5141613;28;20046;-80
2022/09/17 08:56:17;;;;;;;1.42;1.15;;;;;;;12.85;65.57;100913.81;5121641;28;20560;-80
2022/09/17 08:58:51;;;;;;;0.20;0.20;;;;;;;12.90;66.27;100902.22;5114949;28;20046;-80
2022/09/17 09:01:22;;;;;;;0.60;0.60;;;;;;;12.94;66.57;100907.38;5139941;28;20048;-80
2022/09/17 09:04:08;;;;;;;1.55;0.95;;;;;;;12.91;65.99;100919.75;5141776;28;20486;-80
2022/09/17 09:06:48;;;;;;;0.20;0.20;;;;;;;12.92;64.26;100910.06;5146761;28;20514;-80
2022/09/17 09:09:22;;;;;;;0.40;0.40;;;;;;;12.81;65.03;100912.22;5154547;28;20089;-80
2022/09/17 09:12:04;;;;;;;0.52;0.52;;;;;;;12.84;65.31;100912.97;5119710;28;20045;-80
2022/09/17 09:14:48;;;;;;;5.88;1.73;;;;;;;12.94;64.63;100907.38;5163600;28;20030;-81
2022/09/17 09:17:26;;;;;;;1.13;1.02;;;;;;;12.98;65.24;100909.00;5152333;28;20054;-80
2022/09/17 09:19:56;;;;;;;0.22;0.22;;;;;;;13.22;65.38;100912.56;5143129;28;20046;-80
2022/09/17 09:22:33;;;;;;;0.38;0.38;;;;;;;13.14;65.27;100904.91;5128729;28;20196;-80
2022/09/17 09:25:04;;;;;;;0.63;0.63;;;;;;;13.13;62.66;100912.88;5163648;28;20027;-80
2022/09/17 09:28:04;;;;;;;1.65;0.88;;;;;;;13.17;63.70;100914.47;5146156;28;20077;-80
2022/09/17 09:31:20;;;;;;;0.20;0.20;;;;;;;13.24;63.97;100910.72;5138704;28;20682;-80
2022/09/17 09:33:51;;;;;;;0.30;0.30;;;;;;;13.26;64.66;100905.41;5170551;28;20390;-80
2022/09/17 09:36:26;;;;;;;0.20;0.20;;;;;;;13.34;62.26;100911.28;5126599;28;20057;-80
2022/09/17 09:39:11;;;;;;;0.20;0.20;;;;;;;13.31;62.05;100906.09;5128889;28;20549;-80
2022/09/17 09:42:15;;;;;;;0.20;0.20;;;;;;;13.29;60.56;100913.19;5143719;28;20522;-80
2022/09/17 09:44:46;;;;;;;0.20;0.20;;;;;;;13.34;60.63;100911.28;5152189;28;20036;-80
2022/09/17 09:47:57;;;;;;;0.93;0.93;;;;;;;13.42;59.96;100909.25;5143116;28;20050;-80
2022/09/17 09:51:16;;;;;;;0.50;0.50;;;;;;;13.39;60.04;100909.34;5141409;28;20057;-80
2022/09/17 09:54:12;;;;;;;0.20;0.20;;;;;;;13.47;59.51;100906.44;5113762;28;20358;-80
2022/09/17 09:57:11;;;;;;;0.30;0.30;;;;;;;13.54;59.08;100907.94;5164364;28;20466;-80
2022/09/17 09:59:41;;;;;;;0.30;0.30;;;;;;;13.59;60.27;100898.09;5144481;28;20556;-80
2022/09/17 10:02:13;;;;;;;1.15;1.02;;;;;;;13.64;59.18;100904.03;5136403;28;20056;-80
2022/09/17 10:04:43;;;;;;;0.32;0.32;;;;;;;13.65;58.89;100916.31;5115337;28;20045;-79
2022/09/17 10:07:14;;;;;;;1.85;1.17;;;;;;;13.68;60.10;100910.06;5130872;28;20038;-79
2022/09/17 10:09:45;;;;;;;0.50;0.50;;;;;;;13.60;59.51;100896.28;5163179;28;20031;-80
2022/09/17 10:12:16;;;;;;;0.25;0.25;;;;;;;13.78;59.51;100911.44;5137023;28;20037;-79
2022/09/17 10:14:47;;;;;;;0.45;0.45;;;;;;;13.77;59.43;100904.44;5121663;28;20022;-79
2022/09/17 10:17:25;;;;;;;0.20;0.20;;;;;;;13.84;60.00;100895.38;5159487;28;20578;-80
2022/09/17 10:19:59;;;;;;;0.20;0.20;;;;;;;13.86;59.37;100884.78;5161117;28;20058;-80
2022/09/17 10:22:35;;;;;;;0.43;0.43;;;;;;;13.78;57.16;100889.50;5135943;28;20077;-80
2022/09/17 10:25:28;;;;;;;0.38;0.38;;;;;;;13.92;56.44;100889.81;5116574;28;20030;-79
2022/09/17 10:28:05;;;;;;;0.33;0.33;;;;;;;13.87;56.53;100883.00;5140170;28;20069;-80
2022/09/17 10:30:36;;;;;;;0.20;0.20;;;;;;;13.90;57.96;100882.88;5113859;28;20084;-79
2022/09/17 10:33:13;;;;;;;0.20;0.20;;;;;;;13.99;57.80;100887.81;5124143;28;20545;-80
2022/09/17 10:36:13;;;;;;;1.38;0.93;;;;;;;13.98;58.05;100875.53;5127595;28;20034;-80
2022/09/17 10:38:48;;;;;;;0.30;0.30;;;;;;;14.15;57.16;100877.50;5130513;28;20465;-80
2022/09/17 10:41:21;;;;;;;0.38;0.38;;;;;;;14.10;56.89;100874.19;5136208;28;20041;-80
2022/09/17 10:43:52;;;;;;;2.10;1.08;;;;;;;14.19;58.69;100867.69;5118409;28;20616;-80
2022/09/17 10:46:28;;;;;;;0.20;0.20;;;;;;;14.18;60.67;100864.19;5143763;28;20026;-80
2022/09/17 10:49:19;;;;;;;0.60;0.52;;;;;;;14.27;58.47;100865.59;5150551;28;20030;-80
2022/09/17 10:51:49;;;;;;;0.73;0.73;;;;;;;14.37;57.40;100872.22;5155480;28;20519;-80
2022/09/17 10:55:08;;;;;;;0.20;0.20;;;;;;;14.27;58.00;100860.31;5140316;28;20037;-80
2022/09/17 10:57:57;;;;;;;0.20;0.20;;;;;;;14.35;58.14;100857.38;5122477;28;20103;-82
2022/09/17 11:00:48;;;;;;;2.72;0.63;;;;;;;14.48;58.51;100856.81;5124612;28;20035;-81
2022/09/17 11:03:58;;;;;;;0.20;0.20;;;;;;;14.40;57.14;100866.84;5111548;28;20078;-81
2022/09/17 11:06:49;;;;;;;0.28;0.28;;;;;;;14.45;59.32;100867.50;5135127;28;20070;-81
2022/09/17 11:09:41;;;;;;;0.25;0.25;;;;;;;14.47;59.39;100863.03;5143210;28;20044;-81
2022/09/17 11:12:22;;;;;;;1.65;0.50;;;;;;;14.57;58.73;100862.63;5135568;28;20042;-81
2022/09/17 11:15:11;;;;;;;0.28;0.28;;;;;;;14.33;63.05;100878.56;5119146;28;20029;-81
2022/09/17 11:18:15;;;;;;;1.85;0.55;;;;;;;14.20;64.36;100885.25;5121726;28;20063;-80
2022/09/17 11:21:10;;;;;;;0.20;0.20;;;;;;;14.25;64.92;100899.13;5153005;28;20080;-80
2022/09/17 11:24:12;;;;;;;0.28;0.28;;;;;;;14.17;65.53;100897.63;5144745;28;20209;-81
2022/09/17 11:27:10;;;;;;;0.20;0.20;;;;;;;14.05;65.78;100900.75;5139033;28;20030;-82
2022/09/17 11:30:10;;;;;;;1.50;1.40;;;;;;;14.16;65.79;100889.78;5153555;28;20030;-80
2022/09/17 11:33:04;;;;;;;1.92;1.45;;;;;;;14.02;66.82;100898.22;5153316;28;20379;-80
2022/09/17 11:36:16;;;;;;;0.20;0.20;;;;;;;13.67;69.00;100888.09;5155855;28;20046;-81
2022/09/17 11:38:54;;;;;;;3.33;1.42;;;;;;;13.84;68.61;100884.81;5127970;28;20038;-81
2022/09/17 11:41:36;;;;;;;0.30;0.30;;;;;;;14.09;69.94;100883.03;5144260;28;20109;-81
2022/09/17 11:44:19;;;;;;;1.38;0.80;;;;;;;14.15;71.60;100872.22;5129974;28;20046;-82
2022/09/17 11:46:56;;;;;;;1.17;1.17;;;;;;;14.27;67.63;100881.44;5145387;28;20124;-80
2022/09/17 11:49:36;;;;;;;0.20;0.20;;;;;;;14.20;67.54;100869.41;5147401;28;20058;-81
2022/09/17 11:52:13;;;;;;;0.20;0.20;;;;;;;14.34;67.99;100859.13;5152566;28;20042;-80
2022/09/17 11:55:05;;;;;;;0.50;0.50;;;;;;;14.40;68.18;100861.56;5144668;28;20049;-81
2022/09/17 11:57:40;;;;;;;0.68;0.68;;;;;;;14.39;66.36;100857.19;5139992;28;20038;-80
2022/09/17 12:00:22;;;;;;;0.20;0.20;;;;;;;14.42;66.14;100864.97;5164787;28;20036;-80
2022/09/17 12:03:13;;;;;;;0.20;0.20;;;;;;;14.39;65.21;100844.00;5160636;28;20171;-80
2022/09/17 12:05:48;;;;;;;0.65;0.65;;;;;;;14.27;64.90;100849.75;5151418;28;20037;-81
2022/09/17 12:08:21;;;;;;;0.50;0.50;;;;;;;14.36;65.83;100854.66;5140325;28;20098;-80
2022/09/17 12:11:26;;;;;;;0.20;0.20;;;;;;;14.27;65.93;100840.06;5134316;28;20060;-81
2022/09/17 12:14:14;;;;;;;0.20;0.20;;;;;;;14.36;65.70;100848.53;5151230;28;20736;-80